Time;durP1;ratioP1;P1;durP2;ratioP2;P2;SDS_P1;SDS_P2;PMS_P1;PMS_P2;Temp;Humidity;BMP_temperature;BMP_pressure;BME280_temperature;BME280_humidity;BME280_pressure;Samples;Min_cycle;Max_cycle;Signal;HPM_P1;HPM_P2
2022/01/20 00:01:49;;;;;;;9.50;3.40;;;6.60;91.10;;;;;;5053780;28;20090;-68
2022/01/20 00:04:25;;;;;;;6.47;2.47;;;6.70;91.00;;;;;;5057461;28;20516;-68
2022/01/20 00:28:29;;;;;;;13.48;2.42;;;6.30;91.00;;;;;;5051777;28;20668;-68
2022/01/20 00:31:10;;;;;;;11.48;2.55;;;6.30;90.80;;;;;;5049998;28;20036;-68
2022/01/20 00:33:43;;;;;;;17.63;2.50;;;6.30;90.60;;;;;;5054549;28;20045;-69
2022/01/20 00:38:40;;;;;;;18.77;2.97;;;6.10;90.30;;;;;;5066059;28;20031;-68
2022/01/20 00:41:08;;;;;;;21.45;2.50;;;6.10;90.30;;;;;;5046177;28;20048;-68
2022/01/20 00:43:34;;;;;;;15.82;2.25;;;6.00;90.10;;;;;;5066742;28;20141;-68
2022/01/20 00:46:00;;;;;;;18.50;2.10;;;5.90;89.80;;;;;;5055368;28;20020;-69
2022/01/20 00:48:26;;;;;;;15.10;2.67;;;5.80;90.10;;;;;;5070991;28;20400;-68
2022/01/20 00:50:51;;;;;;;9.30;1.83;;;5.70;89.50;;;;;;5054567;28;20036;-68
2022/01/20 00:53:17;;;;;;;16.35;2.22;;;5.70;90.10;;;;;;5051475;28;20028;-68
2022/01/20 00:55:43;;;;;;;17.35;2.78;;;5.70;90.30;;;;;;5061719;28;20787;-68
2022/01/20 00:58:09;;;;;;;13.75;2.35;;;5.70;90.20;;;;;;5055847;28;20865;-68
2022/01/20 01:00:36;;;;;;;13.65;2.35;;;5.70;89.70;;;;;;5059785;28;20016;-68
2022/01/20 01:03:02;;;;;;;13.65;3.58;;;5.70;88.50;;;;;;5050579;28;20044;-68
2022/01/20 01:05:28;;;;;;;20.80;2.58;;;5.70;89.40;;;;;;5048911;28;20032;-68
2022/01/20 01:07:56;;;;;;;18.92;2.47;;;5.70;89.60;;;;;;5051874;28;20166;-68
2022/01/20 01:10:25;;;;;;;17.40;2.35;;;5.70;89.00;;;;;;5048701;28;20044;-68
2022/01/20 01:12:58;;;;;;;18.90;2.92;;;5.70;88.60;;;;;;5057348;28;20040;-68
2022/01/20 01:15:36;;;;;;;19.67;3.17;;;5.70;88.20;;;;;;5050808;28;20029;-68
2022/01/20 01:23:32;;;;;;;18.73;2.55;;;5.50;88.70;;;;;;5064153;28;20040;-68
2022/01/20 01:26:00;;;;;;;14.18;2.28;;;5.50;88.70;;;;;;5059067;28;20033;-67
2022/01/20 01:28:29;;;;;;;10.55;2.55;;;5.50;87.80;;;;;;5057569;28;20123;-68
2022/01/20 01:33:50;;;;;;;12.60;2.50;;;5.50;87.90;;;;;;5049856;28;20028;-68
2022/01/20 01:36:19;;;;;;;16.90;2.00;;;5.40;87.00;;;;;;5072574;28;20517;-69
2022/01/20 01:38:47;;;;;;;15.70;2.42;;;5.40;87.50;;;;;;5060406;28;20028;-69
2022/01/20 01:41:16;;;;;;;12.52;2.28;;;5.40;87.50;;;;;;5056015;28;20056;-69
2022/01/20 01:43:47;;;;;;;14.23;2.13;;;5.30;87.70;;;;;;5068343;28;20033;-68
2022/01/20 01:46:14;;;;;;;13.85;2.13;;;5.40;88.00;;;;;;5063892;28;20501;-68
2022/01/20 01:48:42;;;;;;;9.95;1.70;;;5.30;87.80;;;;;;5047741;28;20067;-68
2022/01/20 01:51:10;;;;;;;19.08;2.20;;;5.30;87.60;;;;;;5052441;28;20060;-69
2022/01/20 01:53:39;;;;;;;10.70;1.45;;;5.20;87.60;;;;;;5048436;28;20123;-68
2022/01/20 01:56:06;;;;;;;15.45;2.17;;;5.10;88.30;;;;;;5052138;28;20027;-69
2022/01/20 01:58:33;;;;;;;11.18;2.10;;;5.10;88.50;;;;;;5052139;28;20032;-69
2022/01/20 02:01:19;;;;;;;11.88;1.75;;;5.10;88.40;;;;;;5054521;28;20629;-68
2022/01/20 02:03:55;;;;;;;14.48;1.65;;;5.00;88.50;;;;;;5061896;28;20059;-69
2022/01/20 02:07:02;;;;;;;10.80;1.33;;;5.00;88.60;;;;;;5051256;28;20404;-68
2022/01/20 02:20:01;;;;;;;8.18;1.92;;;4.80;86.20;;;;;;5066591;28;20033;-68
2022/01/20 02:22:36;;;;;;;17.00;1.83;;;4.80;86.20;;;;;;5053233;28;20047;-68
2022/01/20 02:25:25;;;;;;;8.43;1.48;;;4.80;85.80;;;;;;5050771;28;20032;-68
2022/01/20 02:27:54;;;;;;;12.48;1.10;;;4.70;85.90;;;;;;5057080;28;20036;-68
2022/01/20 02:30:24;;;;;;;13.55;1.60;;;4.70;85.90;;;;;;5052303;28;20052;-68
2022/01/20 02:32:59;;;;;;;7.45;1.50;;;4.70;86.10;;;;;;5051081;28;20029;-69
2022/01/20 02:35:27;;;;;;;8.60;1.70;;;4.60;85.70;;;;;;5048048;28;20082;-68
2022/01/20 02:38:05;;;;;;;13.30;1.65;;;4.60;86.50;;;;;;5039069;28;20290;-68
2022/01/20 02:44:50;;;;;;;13.13;1.77;;;4.50;86.70;;;;;;5053027;28;20378;-68
2022/01/20 02:46:07;;;;;;;9.02;2.08;;;4.50;87.10;;;;;;5055567;28;20041;-68
2022/01/20 02:48:34;;;;;;;11.20;1.17;;;4.50;87.10;;;;;;5051289;28;20051;-69
2022/01/20 02:51:01;;;;;;;12.23;1.45;;;4.40;87.20;;;;;;5048347;28;20029;-68
2022/01/20 02:53:27;;;;;;;9.90;1.60;;;4.40;86.90;;;;;;5058695;28;20043;-68
2022/01/20 02:55:53;;;;;;;9.65;1.60;;;4.50;87.70;;;;;;5060685;28;20382;-68
2022/01/20 02:58:19;;;;;;;6.88;0.95;;;4.40;87.00;;;;;;5062858;28;20039;-68
2022/01/20 03:00:45;;;;;;;10.95;1.60;;;4.50;87.20;;;;;;5051242;28;20449;-68
2022/01/20 03:03:12;;;;;;;12.77;2.58;;;4.60;87.50;;;;;;5052194;28;20067;-68
2022/01/20 03:05:38;;;;;;;11.60;1.63;;;4.60;86.80;;;;;;5071351;28;20036;-69
2022/01/20 03:08:08;;;;;;;12.20;2.00;;;4.70;86.20;;;;;;5055486;28;20170;-68
2022/01/20 03:10:34;;;;;;;10.63;1.60;;;4.80;86.30;;;;;;5047433;28;21099;-68
2022/01/20 03:12:59;;;;;;;9.02;1.67;;;4.80;85.00;;;;;;5050419;28;20055;-68
2022/01/20 03:15:25;;;;;;;12.35;1.88;;;4.80;85.60;;;;;;5048103;28;20040;-68
2022/01/20 03:17:51;;;;;;;12.05;1.92;;;4.80;85.60;;;;;;5050366;28;20777;-68
2022/01/20 03:20:17;;;;;;;11.40;1.73;;;4.80;85.40;;;;;;5052895;28;20028;-68
2022/01/20 03:22:43;;;;;;;14.35;2.28;;;4.80;85.10;;;;;;5058317;28;20040;-68
2022/01/20 03:25:09;;;;;;;11.00;1.85;;;4.80;84.70;;;;;;5048429;28;20733;-69
2022/01/20 03:27:35;;;;;;;9.32;1.50;;;4.70;85.70;;;;;;5051979;28;20260;-68
2022/01/20 03:30:01;;;;;;;7.85;1.80;;;4.60;85.20;;;;;;5045629;28;20104;-69
2022/01/20 03:32:28;;;;;;;11.68;2.35;;;4.60;85.70;;;;;;5048175;28;20453;-68
2022/01/20 03:34:54;;;;;;;13.60;2.88;;;4.50;86.00;;;;;;5060185;28;20016;-69
2022/01/20 03:37:20;;;;;;;11.90;1.88;;;4.40;86.30;;;;;;5051028;28;20029;-68
2022/01/20 03:40:15;;;;;;;20.30;2.28;;;4.40;87.10;;;;;;5048405;28;20123;-69
2022/01/20 03:42:41;;;;;;;14.02;1.75;;;4.40;87.30;;;;;;5052695;28;20097;-69
2022/01/20 03:45:08;;;;;;;22.63;2.42;;;4.40;87.50;;;;;;5046269;28;20116;-68
2022/01/20 03:47:34;;;;;;;13.00;2.00;;;4.40;87.40;;;;;;5055190;28;20081;-68
2022/01/20 03:52:27;;;;;;;19.33;2.38;;;4.40;87.90;;;;;;5064432;28;20033;-68
2022/01/20 03:54:53;;;;;;;11.52;1.98;;;4.40;87.90;;;;;;5047518;28;20025;-68
2022/01/20 03:57:25;;;;;;;19.08;1.98;;;4.50;87.40;;;;;;5049239;28;20117;-69
2022/01/20 04:00:00;;;;;;;15.18;2.28;;;4.60;87.40;;;;;;5049313;28;20029;-68
2022/01/20 04:02:47;;;;;;;12.38;1.88;;;4.70;87.20;;;;;;5052034;28;20387;-69
2022/01/20 04:05:36;;;;;;;15.23;1.55;;;4.80;87.20;;;;;;5055806;28;20072;-68
2022/01/20 04:08:37;;;;;;;14.93;2.22;;;4.90;86.30;;;;;;5052345;28;20115;-69
2022/01/20 04:11:06;;;;;;;10.40;2.22;;;5.00;86.10;;;;;;5051648;28;20029;-69
2022/01/20 04:13:33;;;;;;;23.15;3.17;;;5.00;86.60;;;;;;5054470;28;20051;-69
2022/01/20 04:16:12;;;;;;;10.57;1.63;;;5.00;87.40;;;;;;5057595;28;20116;-68
2022/01/20 04:18:38;;;;;;;15.57;2.42;;;5.00;87.60;;;;;;5056426;28;20140;-69
2022/01/20 04:21:04;;;;;;;19.33;2.63;;;5.00;88.00;;;;;;5053872;28;20024;-69
2022/01/20 04:23:30;;;;;;;18.23;2.63;;;5.00;87.90;;;;;;5050873;28;20033;-68
2022/01/20 04:25:56;;;;;;;16.58;2.58;;;5.00;87.90;;;;;;5046328;28;20119;-69
2022/01/20 04:28:23;;;;;;;17.40;2.38;;;5.10;88.50;;;;;;5055062;28;20080;-69
2022/01/20 04:30:48;;;;;;;12.05;1.63;;;5.10;87.40;;;;;;5057924;28;20448;-68
2022/01/20 04:33:15;;;;;;;13.82;1.73;;;5.00;87.70;;;;;;5051492;28;20052;-69
2022/01/20 04:35:41;;;;;;;11.38;1.35;;;5.00;88.00;;;;;;5061098;28;20681;-69
2022/01/20 04:38:07;;;;;;;6.57;1.15;;;4.90;88.00;;;;;;5053116;28;20707;-68
2022/01/20 04:40:39;;;;;;;9.18;1.27;;;4.90;88.20;;;;;;5058284;28;20028;-68
2022/01/20 04:43:05;;;;;;;10.23;1.02;;;4.90;88.10;;;;;;5076692;28;20107;-69
2022/01/20 04:45:38;;;;;;;5.80;0.75;;;4.70;87.40;;;;;;5055411;28;20033;-68
2022/01/20 04:59:15;;;;;;;4.47;1.13;;;3.10;91.10;;;;;;5056732;28;20040;-68
2022/01/20 05:01:45;;;;;;;5.10;1.35;;;3.00;91.30;;;;;;5059360;28;20027;-68
2022/01/20 05:04:25;;;;;;;5.97;1.08;;;3.10;91.40;;;;;;5057918;28;20060;-68
2022/01/20 05:07:17;;;;;;;9.50;0.95;;;3.10;91.20;;;;;;5058960;28;20119;-68
2022/01/20 05:09:43;;;;;;;5.50;1.50;;;3.10;90.60;;;;;;5065488;28;20020;-68
2022/01/20 05:12:13;;;;;;;5.57;0.40;;;3.20;90.70;;;;;;5051510;28;20124;-68
2022/01/20 05:14:40;;;;;;;4.97;1.25;;;3.30;90.50;;;;;;5055997;28;20028;-68
2022/01/20 05:17:07;;;;;;;9.38;0.82;;;3.30;90.00;;;;;;5050764;28;20647;-68
2022/01/20 05:19:33;;;;;;;4.18;0.63;;;3.40;90.00;;;;;;5051144;28;20115;-69
2022/01/20 05:22:00;;;;;;;4.93;1.00;;;3.40;89.80;;;;;;5048496;28;20057;-68
2022/01/20 05:24:32;;;;;;;4.07;0.60;;;3.40;90.00;;;;;;5048941;28;20041;-69
2022/01/20 05:26:58;;;;;;;4.13;0.80;;;3.40;90.10;;;;;;5059084;28;20025;-68
2022/01/20 05:29:27;;;;;;;6.80;0.80;;;3.40;90.10;;;;;;5053444;28;20037;-68
2022/01/20 05:31:54;;;;;;;9.68;1.10;;;3.40;90.00;;;;;;5042331;28;20429;-68
2022/01/20 05:34:20;;;;;;;5.47;1.20;;;3.40;90.20;;;;;;5049505;28;20028;-68
2022/01/20 05:36:48;;;;;;;8.95;1.23;;;3.50;90.20;;;;;;5056106;28;20017;-68
2022/01/20 05:39:16;;;;;;;6.47;1.42;;;3.50;89.40;;;;;;5053423;28;20035;-68
2022/01/20 05:41:42;;;;;;;11.45;1.13;;;3.60;89.60;;;;;;5059852;28;20032;-69
2022/01/20 05:44:25;;;;;;;12.43;1.45;;;3.60;89.10;;;;;;5055298;28;20739;-69
2022/01/20 05:46:53;;;;;;;7.40;1.15;;;3.60;89.20;;;;;;5059579;28;20119;-68
2022/01/20 05:49:38;;;;;;;;;;;3.50;88.00;;;;;;5065194;28;20580;-68
2022/01/20 05:52:05;;;;;;;;;;;3.60;88.80;;;;;;5073153;28;19916;-68
2022/01/20 05:54:31;;;;;;;5.43;0.90;;;3.50;89.20;;;;;;5073327;28;19927;-68
2022/01/20 05:56:57;;;;;;;9.55;1.35;;;3.50;89.70;;;;;;5047266;28;20677;-68
2022/01/20 05:59:23;;;;;;;5.80;1.30;;;3.40;89.70;;;;;;5051263;28;20033;-68
2022/01/20 06:01:56;;;;;;;4.22;1.05;;;3.50;89.30;;;;;;5058047;28;20108;-68
2022/01/20 06:04:22;;;;;;;5.88;1.70;;;3.50;89.20;;;;;;5052252;28;20033;-68
2022/01/20 06:06:48;;;;;;;14.68;1.30;;;3.50;89.20;;;;;;5053550;28;20467;-68
2022/01/20 06:09:13;;;;;;;11.20;1.50;;;3.40;86.30;;;;;;5051168;28;20029;-69
2022/01/20 06:11:39;;;;;;;9.52;1.27;;;3.30;85.10;;;;;;5051994;28;20124;-68
2022/01/20 06:14:10;;;;;;;4.72;0.90;;;3.20;85.80;;;;;;5056716;28;20090;-68
2022/01/20 06:16:37;;;;;;;10.43;1.63;;;3.10;84.40;;;;;;5047219;28;20033;-68
2022/01/20 06:19:04;;;;;;;6.57;1.10;;;3.20;84.80;;;;;;5051330;28;20028;-68
2022/01/20 06:21:29;;;;;;;6.60;1.30;;;3.20;85.30;;;;;;5053673;28;20032;-68
2022/01/20 06:23:56;;;;;;;7.22;1.00;;;3.20;84.30;;;;;;5048930;28;20100;-68
2022/01/20 06:26:22;;;;;;;5.80;1.10;;;3.20;83.80;;;;;;5065741;28;20048;-68
2022/01/20 06:28:49;;;;;;;7.93;1.90;;;3.20;83.10;;;;;;5052834;28;20016;-68
2022/01/20 06:31:16;;;;;;;8.98;1.23;;;3.10;82.90;;;;;;5047486;28;20040;-69
2022/01/20 06:33:42;;;;;;;6.57;0.90;;;3.10;83.90;;;;;;5070151;28;20115;-68
2022/01/20 06:36:10;;;;;;;7.22;1.17;;;3.00;81.60;;;;;;5054596;28;20024;-68
2022/01/20 06:38:36;;;;;;;8.10;1.80;;;2.90;81.80;;;;;;5054960;28;20073;-68
2022/01/20 06:41:02;;;;;;;5.10;0.93;;;2.70;80.30;;;;;;5047378;28;20047;-68
2022/01/20 06:43:33;;;;;;;4.88;0.80;;;2.60;79.60;;;;;;5048806;28;20103;-68
2022/01/20 06:45:59;;;;;;;4.45;0.90;;;2.60;80.00;;;;;;5044433;28;20063;-69
2022/01/20 06:48:51;;;;;;;5.28;0.80;;;2.60;79.80;;;;;;5044994;28;20882;-68
2022/01/20 06:51:30;;;;;;;4.75;0.70;;;2.60;79.90;;;;;;5048730;28;20462;-68
2022/01/20 06:53:56;;;;;;;8.50;1.30;;;2.60;78.60;;;;;;5057680;28;20035;-68
2022/01/20 06:56:22;;;;;;;3.80;0.47;;;2.70;78.40;;;;;;5049438;28;20058;-68
2022/01/20 06:58:48;;;;;;;10.63;0.85;;;2.70;77.40;;;;;;5051457;28;20024;-69
2022/01/20 07:01:16;;;;;;;10.75;1.80;;;2.70;76.70;;;;;;5058608;28;20028;-69
2022/01/20 07:03:43;;;;;;;6.88;1.50;;;2.60;75.70;;;;;;5054796;28;20067;-68
2022/01/20 07:06:10;;;;;;;11.63;1.00;;;2.50;76.00;;;;;;5051386;28;20140;-68
2022/01/20 07:08:56;;;;;;;7.95;1.17;;;2.50;77.00;;;;;;5047518;28;20100;-69
2022/01/20 07:11:22;;;;;;;4.00;0.75;;;2.50;75.30;;;;;;5047502;28;20043;-69
2022/01/20 07:13:48;;;;;;;6.45;1.10;;;2.40;74.20;;;;;;5062526;28;20041;-67
2022/01/20 07:16:14;;;;;;;7.93;1.10;;;2.40;74.00;;;;;;5050010;28;20071;-69
2022/01/20 07:18:39;;;;;;;11.73;1.15;;;2.30;74.30;;;;;;5055255;28;20503;-69
2022/01/20 07:21:05;;;;;;;3.63;0.93;;;2.20;73.40;;;;;;5048849;28;20021;-68
2022/01/20 07:23:38;;;;;;;7.53;1.67;;;2.20;74.30;;;;;;5048482;28;20530;-69
2022/01/20 07:26:08;;;;;;;6.22;1.75;;;2.20;74.00;;;;;;5056355;28;20036;-68
2022/01/20 07:28:46;;;;;;;2.42;0.75;;;2.30;74.70;;;;;;5087578;28;20073;-69
2022/01/20 07:31:12;;;;;;;5.60;1.00;;;2.30;72.60;;;;;;5063706;28;20093;-68
2022/01/20 07:33:38;;;;;;;5.22;0.70;;;2.30;74.30;;;;;;5087278;28;20627;-68
2022/01/20 07:36:04;;;;;;;6.43;0.70;;;2.30;73.80;;;;;;5069890;28;20104;-68
2022/01/20 07:38:31;;;;;;;10.90;1.08;;;2.30;75.00;;;;;;5072850;28;20837;-69
2022/01/20 07:40:57;;;;;;;6.57;1.00;;;2.30;73.70;;;;;;5069066;28;20025;-69
2022/01/20 07:43:23;;;;;;;11.90;1.70;;;2.40;73.50;;;;;;5069514;28;20032;-67
2022/01/20 07:45:55;;;;;;;7.15;1.00;;;2.40;74.70;;;;;;5075107;28;20790;-73
2022/01/20 07:48:45;;;;;;;5.13;1.02;;;2.50;79.60;;;;;;5071088;28;20138;-75
2022/01/20 07:51:17;;;;;;;9.63;1.52;;;2.90;82.00;;;;;;5072440;28;20075;-75
2022/01/20 07:53:44;;;;;;;6.97;1.27;;;3.40;79.30;;;;;;5062249;28;20038;-75
2022/01/20 07:56:11;;;;;;;5.85;1.15;;;3.90;76.50;;;;;;5086730;28;20416;-74
2022/01/20 07:58:38;;;;;;;10.85;1.10;;;4.40;69.80;;;;;;5073243;28;20073;-71
2022/01/20 08:01:05;;;;;;;4.78;1.13;;;4.40;67.10;;;;;;5073960;28;20034;-69
2022/01/20 08:03:36;;;;;;;4.32;1.45;;;4.20;66.40;;;;;;5060905;28;20580;-70
2022/01/20 08:06:04;;;;;;;7.65;1.83;;;4.10;66.30;;;;;;5068949;28;20032;-69
2022/01/20 08:08:34;;;;;;;9.20;1.52;;;3.80;66.20;;;;;;5070275;28;20028;-71
2022/01/20 08:11:23;;;;;;;6.25;1.50;;;3.70;66.80;;;;;;5062834;28;20048;-70
2022/01/20 08:13:53;;;;;;;6.85;1.67;;;3.60;66.80;;;;;;5073110;28;20499;-70
2022/01/20 08:16:18;;;;;;;9.50;1.13;;;3.40;66.60;;;;;;5070932;28;20046;-70
2022/01/20 08:18:44;;;;;;;4.93;1.05;;;3.40;68.80;;;;;;5080084;28;20274;-70
2022/01/20 08:21:10;;;;;;;7.53;1.30;;;3.40;69.90;;;;;;5079826;28;20583;-70
2022/01/20 08:23:36;;;;;;;4.05;1.02;;;3.40;69.60;;;;;;5076391;28;20494;-70
2022/01/20 08:26:02;;;;;;;7.97;1.73;;;3.50;69.60;;;;;;5079902;28;20032;-69
2022/01/20 08:28:28;;;;;;;6.68;1.00;;;3.60;70.40;;;;;;5078347;28;20032;-70
2022/01/20 08:30:54;;;;;;;10.75;1.55;;;3.60;69.80;;;;;;5075968;28;20035;-71
2022/01/20 08:33:20;;;;;;;5.70;1.20;;;3.60;70.30;;;;;;5071587;28;20028;-70
2022/01/20 08:35:54;;;;;;;15.20;1.63;;;3.70;70.50;;;;;;5070811;28;20033;-71
2022/01/20 08:38:36;;;;;;;10.18;1.42;;;3.70;71.40;;;;;;5066069;28;20080;-70
2022/01/20 08:41:02;;;;;;;11.88;1.52;;;3.60;70.70;;;;;;5075793;28;20033;-70
2022/01/20 08:43:27;;;;;;;10.18;1.98;;;3.70;72.70;;;;;;5086665;28;20032;-72
2022/01/20 08:45:53;;;;;;;11.45;1.50;;;3.70;71.40;;;;;;5070402;28;20441;-72
2022/01/20 08:48:21;;;;;;;16.75;1.88;;;3.80;71.80;;;;;;5072481;28;20032;-71
2022/01/20 08:51:13;;;;;;;7.28;1.27;;;3.80;71.80;;;;;;5071802;28;20114;-75
2022/01/20 08:53:51;;;;;;;12.35;1.83;;;3.90;70.50;;;;;;5066324;28;20032;-73
2022/01/20 08:56:21;;;;;;;4.90;1.40;;;4.00;70.00;;;;;;5072582;28;20784;-72
2022/01/20 08:58:47;;;;;;;5.28;1.20;;;4.20;71.10;;;;;;5073212;28;20016;-72
2022/01/20 09:01:13;;;;;;;8.70;1.48;;;4.40;69.30;;;;;;5074085;28;20041;-73
2022/01/20 09:03:39;;;;;;;12.63;2.15;;;4.60;69.00;;;;;;5073495;28;20523;-75
2022/01/20 09:06:06;;;;;;;8.35;1.45;;;4.70;67.00;;;;;;5067095;28;20396;-70
2022/01/20 09:08:47;;;;;;;10.07;1.83;;;4.80;67.50;;;;;;5076654;28;20591;-68
2022/01/20 09:11:22;;;;;;;11.02;1.52;;;4.60;66.90;;;;;;5072606;28;20031;-62
2022/01/20 09:16:38;;;;;;;12.68;1.30;;;4.80;68.60;;;;;;5074061;28;20153;-68
2022/01/20 09:19:24;;;;;;;14.73;2.03;;;5.10;68.30;;;;;;5066966;28;20039;-68
2022/01/20 09:21:57;;;;;;;10.98;1.88;;;5.40;67.30;;;;;;5077047;28;20698;-74
2022/01/20 09:24:23;;;;;;;9.43;1.40;;;5.80;67.30;;;;;;5071840;28;20027;-69
2022/01/20 09:26:49;;;;;;;5.03;1.17;;;6.30;62.80;;;;;;5076583;28;20062;-66
2022/01/20 09:29:15;;;;;;;11.70;1.67;;;6.20;63.10;;;;;;5071415;28;20180;-74
2022/01/20 09:31:41;;;;;;;10.60;1.60;;;6.10;64.10;;;;;;5076081;28;20031;-76
2022/01/20 09:34:10;;;;;;;10.77;1.38;;;6.10;63.60;;;;;;5069850;28;20558;-75
2022/01/20 09:36:40;;;;;;;14.82;1.65;;;6.60;63.10;;;;;;5067923;28;20177;-75
2022/01/20 09:39:06;;;;;;;10.45;1.55;;;7.50;60.40;;;;;;5075776;28;20036;-73
2022/01/20 09:41:52;;;;;;;10.38;1.83;;;8.30;59.10;;;;;;5073247;28;20065;-68
2022/01/20 09:44:18;;;;;;;7.95;1.17;;;8.90;56.10;;;;;;5067053;28;20830;-74
2022/01/20 09:46:46;;;;;;;9.70;1.40;;;9.20;54.20;;;;;;5078240;28;20107;-69
2022/01/20 09:49:20;;;;;;;5.95;1.42;;;9.60;54.90;;;;;;5071569;28;20067;-70
2022/01/20 09:51:47;;;;;;;11.45;2.03;;;10.10;52.20;;;;;;5073993;28;20103;-70
2022/01/20 09:54:17;;;;;;;7.22;1.20;;;10.60;50.20;;;;;;5066506;28;20024;-70
2022/01/20 09:56:59;;;;;;;9.48;1.83;;;10.90;50.00;;;;;;5076072;28;20077;-70
2022/01/20 09:59:26;;;;;;;9.77;1.20;;;11.10;49.90;;;;;;5064934;28;20032;-71
2022/01/20 10:01:57;;;;;;;6.10;1.40;;;10.90;49.30;;;;;;5072441;28;20607;-71
2022/01/20 10:04:37;;;;;;;7.55;1.70;;;10.90;48.90;;;;;;5086963;28;20032;-71
2022/01/20 10:07:11;;;;;;;7.70;1.73;;;10.50;49.70;;;;;;5070662;28;20029;-71
2022/01/20 10:09:47;;;;;;;9.10;1.42;;;10.00;51.00;;;;;;5086517;28;20039;-72
2022/01/20 10:12:34;;;;;;;10.10;1.77;;;9.70;53.10;;;;;;5065548;28;20083;-73
2022/01/20 10:15:00;;;;;;;8.48;1.77;;;9.50;51.60;;;;;;5067200;28;20036;-70
2022/01/20 10:17:42;;;;;;;11.98;1.90;;;9.30;54.40;;;;;;5070470;28;20028;-75
2022/01/20 10:20:09;;;;;;;7.35;1.85;;;9.20;53.80;;;;;;5072921;28;20021;-71
2022/01/20 10:22:55;;;;;;;15.23;2.50;;;8.90;54.40;;;;;;5066859;28;20105;-69
2022/01/20 10:25:43;;;;;;;8.35;1.95;;;8.50;56.00;;;;;;5075564;28;20514;-68
2022/01/20 10:28:22;;;;;;;11.88;2.00;;;8.40;56.20;;;;;;5068008;28;20343;-69
2022/01/20 10:30:55;;;;;;;12.93;2.35;;;8.30;56.60;;;;;;5071066;28;20025;-65
2022/01/20 10:33:21;;;;;;;15.90;2.40;;;8.20;58.00;;;;;;5069281;28;20032;-74
2022/01/20 10:35:47;;;;;;;12.43;1.75;;;8.50;57.40;;;;;;5071627;28;20020;-75
2022/01/20 10:38:28;;;;;;;10.95;1.98;;;8.90;56.30;;;;;;5075750;28;20032;-75
2022/01/20 10:40:59;;;;;;;11.95;2.05;;;9.10;56.20;;;;;;5068474;28;20944;-71
2022/01/20 10:43:33;;;;;;;11.57;1.85;;;9.40;54.70;;;;;;5065387;28;20056;-74
2022/01/20 10:46:10;;;;;;;11.45;1.90;;;9.80;52.70;;;;;;5063814;28;20781;-73
2022/01/20 10:48:36;;;;;;;14.18;1.75;;;10.00;53.30;;;;;;5073265;28;20150;-73
2022/01/20 10:51:18;;;;;;;11.45;1.77;;;9.80;51.90;;;;;;5085065;28;20093;-72
2022/01/20 10:54:06;;;;;;;11.77;1.90;;;9.50;52.80;;;;;;5074183;28;20032;-73
2022/01/20 10:56:47;;;;;;;13.15;2.15;;;9.20;52.40;;;;;;5068964;28;20887;-67
2022/01/20 10:59:13;;;;;;;9.55;1.70;;;8.80;54.50;;;;;;5065252;28;20033;-63
2022/01/20 11:01:38;;;;;;;7.22;1.73;;;8.60;54.50;;;;;;5074371;28;20478;-72
2022/01/20 11:04:05;;;;;;;6.03;1.50;;;8.50;55.50;;;;;;5069911;28;20043;-72
2022/01/20 11:06:34;;;;;;;8.63;1.80;;;8.30;55.10;;;;;;5067186;28;20127;-72
2022/01/20 11:09:21;;;;;;;18.75;2.33;;;8.10;57.10;;;;;;5071816;28;20235;-71
2022/01/20 11:12:07;;;;;;;11.55;2.05;;;8.10;58.00;;;;;;5075604;28;20033;-72
2022/01/20 11:14:47;;;;;;;8.77;1.27;;;8.00;57.10;;;;;;5066587;28;20044;-73
2022/01/20 11:17:27;;;;;;;10.52;1.90;;;8.00;57.90;;;;;;5064870;28;20040;-71
2022/01/20 11:20:04;;;;;;;7.70;1.80;;;8.00;57.30;;;;;;5082685;28;20024;-72
2022/01/20 11:22:30;;;;;;;13.23;1.63;;;8.10;56.70;;;;;;5082066;28;20028;-67
2022/01/20 11:25:13;;;;;;;11.18;2.58;;;8.30;55.70;;;;;;5068364;28;20036;-66
2022/01/20 11:27:47;;;;;;;13.30;2.70;;;8.40;55.30;;;;;;5073391;28;20030;-72
2022/01/20 11:30:39;;;;;;;9.18;1.80;;;8.20;55.60;;;;;;5062805;28;20970;-73
2022/01/20 11:33:18;;;;;;;9.57;2.20;;;7.90;55.90;;;;;;5082626;28;20138;-71
2022/01/20 11:35:49;;;;;;;9.70;1.80;;;7.60;56.10;;;;;;5074846;28;20024;-74
2022/01/20 11:38:18;;;;;;;14.40;2.30;;;7.40;56.80;;;;;;5065182;28;20027;-76
2022/01/20 11:40:49;;;;;;;11.90;1.83;;;7.30;57.50;;;;;;5068949;28;20032;-76
2022/01/20 11:43:15;;;;;;;11.75;2.10;;;7.10;57.70;;;;;;5069521;28;20041;-73
2022/01/20 11:45:50;;;;;;;11.23;2.20;;;7.00;59.10;;;;;;5070917;28;20050;-76
2022/01/20 11:48:16;;;;;;;15.63;2.03;;;6.90;59.00;;;;;;5065289;28;20040;-72
2022/01/20 11:50:43;;;;;;;14.43;2.38;;;6.80;57.80;;;;;;5067195;28;20082;-72
2022/01/20 11:53:19;;;;;;;10.48;2.05;;;6.40;57.20;;;;;;5071160;28;20046;-72
2022/01/20 11:55:47;;;;;;;;;;;6.20;58.60;;;;;;5071192;28;20028;-71
2022/01/20 11:58:14;;;;;;;10.25;1.65;;;6.10;58.70;;;;;;5072548;28;19917;-73
2022/01/20 12:00:41;;;;;;;11.95;1.50;;;6.00;60.10;;;;;;5068069;28;20020;-74
2022/01/20 12:03:15;;;;;;;10.40;1.63;;;6.00;59.90;;;;;;5072767;28;20056;-74
2022/01/20 12:06:12;;;;;;;6.03;1.45;;;5.90;60.60;;;;;;5065674;28;20187;-71
2022/01/20 12:09:05;;;;;;;16.77;2.25;;;5.90;60.70;;;;;;5070102;28;20032;-71
2022/01/20 12:11:47;;;;;;;18.27;4.82;;;5.80;60.00;;;;;;5088867;28;20512;-69
2022/01/20 12:14:24;;;;;;;10.90;1.75;;;5.70;60.10;;;;;;5084856;28;20109;-69
2022/01/20 12:16:50;;;;;;;6.22;1.42;;;5.80;61.20;;;;;;5069226;28;20127;-70
2022/01/20 12:19:16;;;;;;;11.13;2.05;;;5.90;61.90;;;;;;5086177;28;20036;-69
2022/01/20 12:21:48;;;;;;;12.60;1.70;;;6.00;62.00;;;;;;5071058;28;20028;-69
2022/01/20 12:24:14;;;;;;;9.68;1.95;;;6.20;61.60;;;;;;5071680;28;20510;-70
2022/01/20 12:26:40;;;;;;;10.00;2.70;;;6.50;62.30;;;;;;5075430;28;20028;-69
2022/01/20 12:29:08;;;;;;;13.43;2.00;;;6.50;60.40;;;;;;5064947;28;20123;-69
2022/01/20 12:31:49;;;;;;;13.70;2.08;;;6.60;60.00;;;;;;5071789;28;20032;-72
2022/01/20 12:34:16;;;;;;;10.48;1.52;;;6.60;60.20;;;;;;5072775;28;20046;-68
2022/01/20 12:36:53;;;;;;;9.70;1.65;;;6.60;59.60;;;;;;5071447;28;20796;-72
2022/01/20 12:39:26;;;;;;;11.80;2.13;;;6.80;59.80;;;;;;5075313;28;20036;-69
2022/01/20 12:42:04;;;;;;;10.15;2.08;;;6.70;58.90;;;;;;5073588;28;20050;-68
2022/01/20 12:44:48;;;;;;;10.30;1.55;;;6.50;59.40;;;;;;5069049;28;20136;-69
2022/01/20 12:47:26;;;;;;;10.52;1.45;;;6.30;60.80;;;;;;5075053;28;20036;-72
2022/01/20 12:50:00;;;;;;;6.47;1.33;;;6.20;60.90;;;;;;5069947;28;20074;-71
2022/01/20 12:52:27;;;;;;;14.45;1.92;;;6.20;61.60;;;;;;5072394;28;20071;-69
2022/01/20 12:54:53;;;;;;;7.85;1.70;;;6.30;61.60;;;;;;5075587;28;20407;-70
2022/01/20 12:57:19;;;;;;;9.95;1.70;;;6.50;61.90;;;;;;5070103;28;20025;-69
2022/01/20 12:59:47;;;;;;;12.55;1.80;;;6.70;62.40;;;;;;5077713;28;20054;-69
2022/01/20 13:02:23;;;;;;;8.73;1.80;;;6.90;60.00;;;;;;5073729;28;20858;-76
2022/01/20 13:04:57;;;;;;;8.60;1.98;;;6.90;60.00;;;;;;5071594;28;20036;-74
2022/01/20 13:07:24;;;;;;;12.30;1.70;;;6.90;61.00;;;;;;5072020;28;20043;-72
2022/01/20 13:10:05;;;;;;;9.68;1.65;;;6.90;60.80;;;;;;5077772;28;20039;-71
2022/01/20 13:12:37;;;;;;;16.92;1.88;;;6.70;60.60;;;;;;5071418;28;20047;-74
2022/01/20 13:15:05;;;;;;;10.95;1.75;;;6.70;60.40;;;;;;5068773;28;20394;-72
2022/01/20 13:17:32;;;;;;;8.82;1.58;;;6.70;61.10;;;;;;5071770;28;20626;-74
2022/01/20 13:20:00;;;;;;;10.43;1.63;;;6.80;61.60;;;;;;5068268;28;20045;-72
2022/01/20 13:25:12;;;;;;;13.18;2.50;;;6.90;60.80;;;;;;5073877;28;20028;-74
2022/01/20 13:27:49;;;;;;;8.57;1.42;;;6.80;60.60;;;;;;5072228;28;20039;-64
2022/01/20 13:30:25;;;;;;;10.95;1.52;;;6.70;61.50;;;;;;5064036;28;20040;-74
2022/01/20 13:32:51;;;;;;;10.30;1.40;;;6.70;61.40;;;;;;5076013;28;20066;-70
2022/01/20 13:35:16;;;;;;;10.95;2.10;;;6.60;62.30;;;;;;5074958;28;20028;-74
2022/01/20 13:37:45;;;;;;;10.00;1.80;;;6.60;62.20;;;;;;5074945;28;20024;-73
2022/01/20 13:40:10;;;;;;;10.80;1.63;;;6.50;62.60;;;;;;5072017;28;20060;-74
2022/01/20 13:44:59;;;;;;;13.88;1.85;;;6.40;63.00;;;;;;5072181;28;20127;-72
2022/01/20 13:45:25;;;;;;;15.07;2.70;;;6.30;62.90;;;;;;5069504;28;20517;-71
2022/01/20 13:48:00;;;;;;;9.57;2.85;;;6.20;65.50;;;;;;5072255;28;20122;-75
2022/01/20 13:50:26;;;;;;;9.50;1.90;;;6.20;65.30;;;;;;5076542;28;20035;-70
2022/01/20 13:52:53;;;;;;;16.48;1.73;;;6.30;65.30;;;;;;5075498;28;20072;-73
2022/01/20 13:55:49;;;;;;;16.45;2.05;;;6.20;64.50;;;;;;5073225;28;20028;-75
2022/01/20 13:58:26;;;;;;;9.60;1.58;;;6.20;64.80;;;;;;5076274;28;20063;-71
2022/01/20 14:00:53;;;;;;;5.88;1.80;;;6.20;64.70;;;;;;5079065;28;20131;-75
2022/01/20 14:03:20;;;;;;;14.02;1.77;;;6.20;65.30;;;;;;5072648;28;20043;-74
2022/01/20 14:05:47;;;;;;;5.60;1.52;;;6.10;65.20;;;;;;5065522;28;20123;-75
2022/01/20 14:08:13;;;;;;;7.50;1.33;;;6.00;65.90;;;;;;5068006;28;20105;-68
2022/01/20 14:10:39;;;;;;;7.05;1.80;;;5.90;66.20;;;;;;5071372;28;20307;-76
2022/01/20 14:13:05;;;;;;;8.35;1.45;;;5.90;66.80;;;;;;5068394;28;20488;-75
2022/01/20 14:15:31;;;;;;;10.77;1.30;;;5.90;67.60;;;;;;5067644;28;20025;-75
2022/01/20 14:17:59;;;;;;;7.57;1.75;;;5.90;67.80;;;;;;5076377;28;20517;-75